sensor_id;sensor_type;location;lat;lon;timestamp;pressure;altitude;pressure_sealevel;temperature;humidity
49055;BME280;35405;52.344;14.530;2022-12-07T06:47:55;100084.16;;;0.11;100.00
49055;BME280;35405;52.344;14.530;2022-12-07T06:50:20;100086.47;;;0.08;100.00
49055;BME280;35405;52.344;14.530;2022-12-07T06:52:45;100088.22;;;0.14;100.00
49055;BME280;35405;52.344;14.530;2022-12-07T06:55:10;100086.94;;;0.16;100.00
49055;BME280;35405;52.344;14.530;2022-12-07T06:57:35;100073.66;;;0.21;100.00
49055;BME280;35405;52.344;14.530;2022-12-07T07:00:01;100076.81;;;0.18;100.00
49055;BME280;35405;52.344;14.530;2022-12-07T07:02:26;100090.53;;;0.22;100.00
49055;BME280;35405;52.344;14.530;2022-12-07T07:04:51;100081.69;;;0.21;100.00
49055;BME280;35405;52.344;14.530;2022-12-07T07:07:16;100080.63;;;0.22;100.00
49055;BME280;35405;52.344;14.530;2022-12-07T07:09:41;100080.16;;;0.26;100.00
49055;BME280;35405;52.344;14.530;2022-12-07T07:12:06;100073.66;;;0.21;100.00
49055;BME280;35405;52.344;14.530;2022-12-07T07:14:32;100077.38;;;0.20;100.00
49055;BME280;35405;52.344;14.530;2022-12-07T07:16:57;100076.34;;;0.21;100.00
49055;BME280;35405;52.344;14.530;2022-12-07T07:19:23;100074.00;;;0.25;100.00
49055;BME280;35405;52.344;14.530;2022-12-07T07:21:48;100067.38;;;0.28;100.00
49055;BME280;35405;52.344;14.530;2022-12-07T07:24:13;100060.16;;;0.28;100.00
49055;BME280;35405;52.344;14.530;2022-12-07T07:26:39;100059.78;;;0.36;100.00
49055;BME280;35405;52.344;14.530;2022-12-07T07:29:04;100057.44;;;0.40;100.00
49055;BME280;35405;52.344;14.530;2022-12-07T07:31:29;100049.41;;;0.40;100.00
49055;BME280;35405;52.344;14.530;2022-12-07T07:33:54;100048.59;;;0.39;100.00
49055;BME280;35405;52.344;14.530;2022-12-07T07:36:19;100047.63;;;0.45;100.00
49055;BME280;35405;52.344;14.530;2022-12-07T07:38:45;100040.97;;;0.48;100.00
49055;BME280;35405;52.344;14.530;2022-12-07T07:41:10;100034.91;;;0.53;100.00
49055;BME280;35405;52.344;14.530;2022-12-07T07:43:35;100050.09;;;0.64;100.00
49055;BME280;35405;52.344;14.530;2022-12-07T07:46:00;100043.19;;;0.68;100.00
49055;BME280;35405;52.344;14.530;2022-12-07T07:48:26;100041.00;;;0.65;100.00
49055;BME280;35405;52.344;14.530;2022-12-07T07:50:51;100043.94;;;0.63;100.00
49055;BME280;35405;52.344;14.530;2022-12-07T07:53:16;100040.28;;;0.70;100.00
49055;BME280;35405;52.344;14.530;2022-12-07T07:55:41;100033.47;;;0.79;100.00
49055;BME280;35405;52.344;14.530;2022-12-07T07:58:14;100034.50;;;0.78;100.00
49055;BME280;35405;52.344;14.530;2022-12-07T08:00:39;100026.47;;;0.78;100.00
49055;BME280;35405;52.344;14.530;2022-12-07T08:03:04;100036.00;;;0.85;100.00
49055;BME280;35405;52.344;14.530;2022-12-07T08:05:30;100046.44;;;0.87;100.00
49055;BME280;35405;52.344;14.530;2022-12-07T08:07:55;100043.44;;;0.83;100.00
49055;BME280;35405;52.344;14.530;2022-12-07T08:10:22;100047.50;;;0.86;100.00
49055;BME280;35405;52.344;14.530;2022-12-07T08:12:47;100038.19;;;0.88;100.00
49055;BME280;35405;52.344;14.530;2022-12-07T08:15:30;100035.34;;;0.95;100.00
49055;BME280;35405;52.344;14.530;2022-12-07T08:17:56;100037.59;;;1.03;100.00
49055;BME280;35405;52.344;14.530;2022-12-07T08:20:21;100040.88;;;1.05;100.00
49055;BME280;35405;52.344;14.530;2022-12-07T08:22:47;100029.81;;;1.02;100.00
49055;BME280;35405;52.344;14.530;2022-12-07T08:25:12;100029.31;;;1.05;100.00
49055;BME280;35405;52.344;14.530;2022-12-07T08:27:37;100023.56;;;1.13;100.00
49055;BME280;35405;52.344;14.530;2022-12-07T08:30:02;100018.13;;;1.08;100.00
49055;BME280;35405;52.344;14.530;2022-12-07T08:32:28;100025.84;;;1.04;100.00
49055;BME280;35405;52.344;14.530;2022-12-07T08:34:53;100023.72;;;1.06;100.00
49055;BME280;35405;52.344;14.530;2022-12-07T08:37:18;100027.84;;;1.14;100.00
49055;BME280;35405;52.344;14.530;2022-12-07T08:39:43;100026.22;;;1.30;100.00
49055;BME280;35405;52.344;14.530;2022-12-07T08:42:08;100022.44;;;1.48;100.00
49055;BME280;35405;52.344;14.530;2022-12-07T08:44:34;100025.63;;;1.45;100.00
49055;BME280;35405;52.344;14.530;2022-12-07T08:47:00;100019.19;;;1.46;100.00
49055;BME280;35405;52.344;14.530;2022-12-07T08:49:36;100023.31;;;1.53;100.00
49055;BME280;35405;52.344;14.530;2022-12-07T08:52:09;100030.03;;;1.56;100.00
49055;BME280;35405;52.344;14.530;2022-12-07T08:54:35;100027.84;;;1.53;100.00
49055;BME280;35405;52.344;14.530;2022-12-07T08:57:02;100024.69;;;1.56;100.00
49055;BME280;35405;52.344;14.530;2022-12-07T08:59:28;100022.16;;;1.66;100.00
49055;BME280;35405;52.344;14.530;2022-12-07T09:01:53;100013.03;;;1.89;100.00
49055;BME280;35405;52.344;14.530;2022-12-07T09:04:18;100017.50;;;2.05;100.00
49055;BME280;35405;52.344;14.530;2022-12-07T09:06:45;100014.25;;;2.03;100.00
49055;BME280;35405;52.344;14.530;2022-12-07T09:09:10;100019.81;;;1.97;100.00
49055;BME280;35405;52.344;14.530;2022-12-07T09:11:36;100017.38;;;1.95;100.00
49055;BME280;35405;52.344;14.530;2022-12-07T09:14:01;100025.28;;;2.07;100.00
49055;BME280;35405;52.344;14.530;2022-12-07T09:16:26;100027.66;;;2.03;100.00
49055;BME280;35405;52.344;14.530;2022-12-07T09:18:52;100018.25;;;2.01;100.00
49055;BME280;35405;52.344;14.530;2022-12-07T09:21:17;100020.94;;;2.01;100.00
49055;BME280;35405;52.344;14.530;2022-12-07T09:23:42;100020.91;;;1.96;100.00
49055;BME280;35405;52.344;14.530;2022-12-07T09:26:07;100019.94;;;2.07;100.00
49055;BME280;35405;52.344;14.530;2022-12-07T09:28:33;100017.81;;;2.09;100.00
49055;BME280;35405;52.344;14.530;2022-12-07T09:30:58;100017.81;;;2.09;100.00
49055;BME280;35405;52.344;14.530;2022-12-07T09:33:29;100008.97;;;2.09;100.00
49055;BME280;35405;52.344;14.530;2022-12-07T09:36:03;100007.59;;;2.06;100.00
49055;BME280;35405;52.344;14.530;2022-12-07T09:38:28;100009.59;;;1.94;100.00
49055;BME280;35405;52.344;14.530;2022-12-07T09:40:56;100011.59;;;1.81;100.00
49055;BME280;35405;52.344;14.530;2022-12-07T09:43:22;100020.22;;;1.83;100.00
49055;BME280;35405;52.344;14.530;2022-12-07T09:45:50;100023.91;;;2.04;100.00
49055;BME280;35405;52.344;14.530;2022-12-07T09:48:17;100018.34;;;2.33;100.00
49055;BME280;35405;52.344;14.530;2022-12-07T09:50:43;100025.13;;;2.41;100.00
49055;BME280;35405;52.344;14.530;2022-12-07T09:55:57;100018.28;;;2.28;100.00
49055;BME280;35405;52.344;14.530;2022-12-07T09:58:24;100025.41;;;2.17;100.00
49055;BME280;35405;52.344;14.530;2022-12-07T10:00:52;100034.63;;;2.26;100.00
49055;BME280;35405;52.344;14.530;2022-12-07T10:03:25;100028.91;;;2.18;100.00
49055;BME280;35405;52.344;14.530;2022-12-07T10:05:50;100029.78;;;2.23;100.00
49055;BME280;35405;52.344;14.530;2022-12-07T10:08:16;100035.25;;;2.34;100.00
49055;BME280;35405;52.344;14.530;2022-12-07T10:10:42;100019.13;;;2.34;100.00
49055;BME280;35405;52.344;14.530;2022-12-07T10:13:09;100025.41;;;2.17;100.00
49055;BME280;35405;52.344;14.530;2022-12-07T10:15:41;100021.88;;;2.12;100.00
49055;BME280;35405;52.344;14.530;2022-12-07T10:18:17;100028.25;;;2.05;100.00
49055;BME280;35405;52.344;14.530;2022-12-07T10:20:43;100027.94;;;2.02;100.00
49055;BME280;35405;52.344;14.530;2022-12-07T10:23:13;100041.09;;;1.81;100.00
49055;BME280;35405;52.344;14.530;2022-12-07T10:25:41;100038.41;;;1.81;100.00
49055;BME280;35405;52.344;14.530;2022-12-07T10:28:25;100049.00;;;2.15;100.00
49055;BME280;35405;52.344;14.530;2022-12-07T10:31:02;100050.31;;;2.40;100.00
49055;BME280;35405;52.344;14.530;2022-12-07T10:33:36;100050.38;;;2.45;100.00
49055;BME280;35405;52.344;14.530;2022-12-07T10:36:19;100043.84;;;2.36;100.00
49055;BME280;35405;52.344;14.530;2022-12-07T10:38:50;100052.94;;;2.35;100.00
49055;BME280;35405;52.344;14.530;2022-12-07T10:41:16;100048.66;;;2.34;100.00
49055;BME280;35405;52.344;14.530;2022-12-07T10:43:48;100048.41;;;2.35;100.00
49055;BME280;35405;52.344;14.530;2022-12-07T10:51:40;100058.13;;;2.41;100.00
49055;BME280;35405;52.344;14.530;2022-12-07T10:54:15;100051.69;;;2.42;100.00
49055;BME280;35405;52.344;14.530;2022-12-07T10:59:42;100050.75;;;2.54;100.00
49055;BME280;35405;52.344;14.530;2022-12-07T11:07:15;100048.34;;;2.57;100.00
49055;BME280;35405;52.344;14.530;2022-12-07T11:14:53;100042.78;;;2.37;100.00
49055;BME280;35405;52.344;14.530;2022-12-07T11:25:00;100062.50;;;2.80;100.00
49055;BME280;35405;52.344;14.530;2022-12-07T11:27:34;100062.72;;;2.73;100.00
49055;BME280;35405;52.344;14.530;2022-12-07T11:32:44;100045.59;;;2.79;100.00
49055;BME280;35405;52.344;14.530;2022-12-07T11:35:18;100054.31;;;2.64;100.00
49055;BME280;35405;52.344;14.530;2022-12-07T11:37:49;100050.22;;;2.29;100.00
49055;BME280;35405;52.344;14.530;2022-12-07T11:40:20;100044.75;;;2.19;100.00
49055;BME280;35405;52.344;14.530;2022-12-07T11:45:35;100060.44;;;2.05;100.00
49055;BME280;35405;52.344;14.530;2022-12-07T11:48:03;100042.88;;;1.98;100.00
49055;BME280;35405;52.344;14.530;2022-12-07T11:55:47;100066.56;;;1.62;100.00
49055;BME280;35405;52.344;14.530;2022-12-07T12:03:52;100090.28;;;1.70;100.00
49055;BME280;35405;52.344;14.530;2022-12-07T12:06:23;100093.41;;;1.84;100.00
49055;BME280;35405;52.344;14.530;2022-12-07T12:14:34;100096.16;;;2.11;100.00
49055;BME280;35405;52.344;14.530;2022-12-07T12:26:21;100092.72;;;1.72;100.00
49055;BME280;35405;52.344;14.530;2022-12-07T12:31:40;100091.38;;;1.74;100.00
49055;BME280;35405;52.344;14.530;2022-12-07T12:36:53;100093.91;;;1.81;100.00
49055;BME280;35405;52.344;14.530;2022-12-07T12:39:24;100090.16;;;1.82;100.00
49055;BME280;35405;52.344;14.530;2022-12-07T12:47:51;100090.16;;;2.04;100.00
49055;BME280;35405;52.344;14.530;2022-12-07T12:59:18;100082.06;;;1.99;100.00
49055;BME280;35405;52.344;14.530;2022-12-07T13:01:47;100075.66;;;2.00;100.00
49055;BME280;35405;52.344;14.530;2022-12-07T13:04:24;100081.75;;;1.95;100.00
49055;BME280;35405;52.344;14.530;2022-12-07T13:06:53;100084.41;;;1.95;100.00
49055;BME280;35405;52.344;14.530;2022-12-07T13:09:25;100085.50;;;1.94;100.00
49055;BME280;35405;52.344;14.530;2022-12-07T13:12:12;100081.75;;;1.95;100.00
49055;BME280;35405;52.344;14.530;2022-12-07T13:14:43;100086.59;;;1.98;100.00
49055;BME280;35405;52.344;14.530;2022-12-07T13:17:09;100088.78;;;2.01;100.00
49055;BME280;35405;52.344;14.530;2022-12-07T13:24:56;100095.16;;;2.17;100.00
49055;BME280;35405;52.344;14.530;2022-12-07T13:27:25;100090.69;;;2.23;100.00
49055;BME280;35405;52.344;14.530;2022-12-07T13:29:56;100093.41;;;2.28;100.00
49055;BME280;35405;52.344;14.530;2022-12-07T13:32:23;100097.22;;;2.32;100.00
49055;BME280;35405;52.344;14.530;2022-12-07T13:34:49;100099.34;;;2.30;100.00
49055;BME280;35405;52.344;14.530;2022-12-07T13:37:27;100096.34;;;2.26;100.00
49055;BME280;35405;52.344;14.530;2022-12-07T13:40:00;100101.03;;;2.14;100.00
49055;BME280;35405;52.344;14.530;2022-12-07T13:42:32;100096.28;;;1.99;100.00
49055;BME280;35405;52.344;14.530;2022-12-07T13:45:19;100098.59;;;1.91;100.00
49055;BME280;35405;52.344;14.530;2022-12-07T13:47:54;100095.75;;;1.80;100.00
49055;BME280;35405;52.344;14.530;2022-12-07T13:50:29;100095.53;;;1.82;100.00
49055;BME280;35405;52.344;14.530;2022-12-07T13:52:56;100090.91;;;1.77;100.00
49055;BME280;35405;52.344;14.530;2022-12-07T13:55:24;100096.53;;;1.76;100.00
49055;BME280;35405;52.344;14.530;2022-12-07T13:57:59;100095.44;;;1.77;100.00
49055;BME280;35405;52.344;14.530;2022-12-07T14:00:35;100082.03;;;1.77;100.00
49055;BME280;35405;52.344;14.530;2022-12-07T14:05:27;100082.53;;;1.74;100.00
49055;BME280;35405;52.344;14.530;2022-12-07T14:08:02;100082.03;;;1.77;100.00
49055;BME280;35405;52.344;14.530;2022-12-07T14:10:35;100078.81;;;1.75;100.00
49055;BME280;35405;52.344;14.530;2022-12-07T14:18:46;100080.53;;;1.64;100.00
49055;BME280;35405;52.344;14.530;2022-12-07T14:21:21;100083.72;;;1.61;100.00
49055;BME280;35405;52.344;14.530;2022-12-07T14:26:35;100084.78;;;1.60;100.00
49055;BME280;35405;52.344;14.530;2022-12-07T14:31:56;100085.44;;;1.50;100.00
49055;BME280;35405;52.344;14.530;2022-12-07T14:34:24;100084.31;;;1.46;100.00
49055;BME280;35405;52.344;14.530;2022-12-07T14:36:51;100087.75;;;1.42;100.00
49055;BME280;35405;52.344;14.530;2022-12-07T14:39:19;100076.44;;;1.40;100.00
49055;BME280;35405;52.344;14.530;2022-12-07T14:41:47;100085.13;;;1.47;100.00
49055;BME280;35405;52.344;14.530;2022-12-07T14:44:18;100078.72;;;1.48;100.00
49055;BME280;35405;52.344;14.530;2022-12-07T14:49:42;100081.91;;;1.28;100.00
49055;BME280;35405;52.344;14.530;2022-12-07T14:52:13;100075.34;;;1.19;100.00
49055;BME280;35405;52.344;14.530;2022-12-07T14:54:57;100079.78;;;1.13;100.00
49055;BME280;35405;52.344;14.530;2022-12-07T14:57:22;100069.25;;;1.06;100.00
49055;BME280;35405;52.344;14.530;2022-12-07T15:00:01;100062.59;;;1.09;100.00
49055;BME280;35405;52.344;14.530;2022-12-07T15:02:27;100068.28;;;1.12;100.00
49055;BME280;35405;52.344;14.530;2022-12-07T15:05:10;100060.97;;;1.08;100.00
49055;BME280;35405;52.344;14.530;2022-12-07T15:07:57;100062.59;;;1.09;100.00
49055;BME280;35405;52.344;14.530;2022-12-07T15:13:25;100051.22;;;1.35;100.00
49055;BME280;35405;52.344;14.530;2022-12-07T15:16:09;100052.97;;;1.47;100.00
49055;BME280;35405;52.344;14.530;2022-12-07T15:21:44;100055.81;;;1.57;100.00
49055;BME280;35405;52.344;14.530;2022-12-07T15:24:10;100057.34;;;1.53;100.00
49055;BME280;35405;52.344;14.530;2022-12-07T15:26:36;100052.97;;;1.47;100.00
49055;BME280;35405;52.344;14.530;2022-12-07T15:29:21;100056.72;;;1.46;100.00
49055;BME280;35405;52.344;14.530;2022-12-07T15:31:47;100048.91;;;1.44;100.00
49055;BME280;35405;52.344;14.530;2022-12-07T15:34:24;100058.28;;;1.42;100.00
49055;BME280;35405;52.344;14.530;2022-12-07T15:36:53;100048.34;;;1.42;100.00
49055;BME280;35405;52.344;14.530;2022-12-07T15:39:21;100050.06;;;1.48;100.00
49055;BME280;35405;52.344;14.530;2022-12-07T15:41:47;100037.03;;;1.57;100.00
49055;BME280;35405;52.344;14.530;2022-12-07T15:44:12;100041.03;;;1.54;100.00
49055;BME280;35405;52.344;14.530;2022-12-07T15:47:20;100048.78;;;1.56;100.00
49055;BME280;35405;52.344;14.530;2022-12-07T15:49:46;100050.06;;;1.48;100.00
49055;BME280;35405;52.344;14.530;2022-12-07T15:52:11;100051.75;;;1.37;100.00
49055;BME280;35405;52.344;14.530;2022-12-07T15:54:36;100048.69;;;1.29;100.00
49055;BME280;35405;52.344;14.530;2022-12-07T15:57:02;100037.44;;;1.27;100.00
49055;BME280;35405;52.344;14.530;2022-12-07T15:59:27;100047.78;;;1.23;100.00
49055;BME280;35405;52.344;14.530;2022-12-07T16:01:53;100049.03;;;0.99;100.00
49055;BME280;35405;52.344;14.530;2022-12-07T16:04:18;100054.16;;;0.66;100.00
49055;BME280;35405;52.344;14.530;2022-12-07T16:06:43;100045.25;;;0.04;100.00
49055;BME280;35405;52.344;14.530;2022-12-07T16:09:09;100037.16;;;-0.13;100.00
49055;BME280;35405;52.344;14.530;2022-12-07T16:11:34;100049.50;;;-0.24;100.00
49055;BME280;35405;52.344;14.530;2022-12-07T16:14:00;100055.00;;;-0.54;100.00
49055;BME280;35405;52.344;14.530;2022-12-07T16:16:25;100057.91;;;-0.67;100.00
49055;BME280;35405;52.344;14.530;2022-12-07T16:18:50;100054.44;;;-0.80;100.00
49055;BME280;35405;52.344;14.530;2022-12-07T16:21:16;100045.38;;;-0.90;100.00
49055;BME280;35405;52.344;14.530;2022-12-07T16:23:42;100038.88;;;-0.95;100.00
49055;BME280;35405;52.344;14.530;2022-12-07T16:26:08;100040.03;;;-0.90;100.00
49055;BME280;35405;52.344;14.530;2022-12-07T16:28:35;100042.47;;;-0.89;100.00
49055;BME280;35405;52.344;14.530;2022-12-07T16:31:08;100034.69;;;-0.90;100.00
49055;BME280;35405;52.344;14.530;2022-12-07T16:33:36;100029.94;;;-0.88;100.00
49055;BME280;35405;52.344;14.530;2022-12-07T16:36:02;100022.28;;;-0.85;100.00
49055;BME280;35405;52.344;14.530;2022-12-07T16:38:27;100029.00;;;-0.82;100.00
49055;BME280;35405;52.344;14.530;2022-12-07T16:40:53;100024.84;;;-0.78;100.00
49055;BME280;35405;52.344;14.530;2022-12-07T16:43:18;100033.19;;;-0.75;100.00
49055;BME280;35405;52.344;14.530;2022-12-07T16:45:45;100020.06;;;-0.76;100.00
49055;BME280;35405;52.344;14.530;2022-12-07T16:48:10;100021.00;;;-0.71;100.00
49055;BME280;35405;52.344;14.530;2022-12-07T16:50:38;100024.81;;;-0.66;100.00
49055;BME280;35405;52.344;14.530;2022-12-07T16:53:03;100026.00;;;-0.62;100.00
49055;BME280;35405;52.344;14.530;2022-12-07T16:55:28;100022.25;;;-0.61;100.00
49055;BME280;35405;52.344;14.530;2022-12-07T16:57:53;100015.66;;;-0.59;100.00
49055;BME280;35405;52.344;14.530;2022-12-07T17:00:19;100012.72;;;-0.57;100.00
49055;BME280;35405;52.344;14.530;2022-12-07T17:02:44;100010.16;;;-0.52;100.00
49055;BME280;35405;52.344;14.530;2022-12-07T17:05:09;100006.34;;;-0.44;100.00
49055;BME280;35405;52.344;14.530;2022-12-07T17:07:35;100003.28;;;-0.36;100.00
49055;BME280;35405;52.344;14.530;2022-12-07T17:10:00;100002.59;;;-0.32;100.00
49055;BME280;35405;52.344;14.530;2022-12-07T17:12:25;100003.84;;;-0.22;100.00
49055;BME280;35405;52.344;14.530;2022-12-07T17:14:50;100004.88;;;-0.12;100.00
49055;BME280;35405;52.344;14.530;2022-12-07T17:17:34;100024.34;;;0.01;100.00
49055;BME280;35405;52.344;14.530;2022-12-07T17:19:59;100030.66;;;0.11;100.00
49055;BME280;35405;52.344;14.530;2022-12-07T17:22:24;100039.13;;;0.20;100.00
49055;BME280;35405;52.344;14.530;2022-12-07T17:24:50;100051.19;;;-0.06;100.00
49055;BME280;35405;52.344;14.530;2022-12-07T17:27:15;100050.09;;;-0.34;100.00
49055;BME280;35405;52.344;14.530;2022-12-07T17:29:41;100046.88;;;-0.48;100.00
49055;BME280;35405;52.344;14.530;2022-12-07T17:32:06;100047.56;;;-0.52;100.00
49055;BME280;35405;52.344;14.530;2022-12-07T17:34:31;100061.97;;;-0.65;100.00
49055;BME280;35405;52.344;14.530;2022-12-07T17:36:56;100054.66;;;-0.81;100.00
49055;BME280;35405;52.344;14.530;2022-12-07T17:39:22;100042.13;;;-0.93;100.00
49055;BME280;35405;52.344;14.530;2022-12-07T17:41:47;100039.00;;;-0.89;100.00
49055;BME280;35405;52.344;14.530;2022-12-07T17:44:31;100033.53;;;-0.83;100.00
49055;BME280;35405;52.344;14.530;2022-12-07T17:46:56;100028.53;;;-0.79;100.00
49055;BME280;35405;52.344;14.530;2022-12-07T17:49:23;100016.59;;;-0.77;100.00
49055;BME280;35405;52.344;14.530;2022-12-07T17:51:48;100015.91;;;-0.72;100.00
49055;BME280;35405;52.344;14.530;2022-12-07T17:54:32;100022.16;;;-0.66;100.00
49055;BME280;35405;52.344;14.530;2022-12-07T17:56:57;100021.00;;;-0.59;100.00
49055;BME280;35405;52.344;14.530;2022-12-07T17:59:22;100021.56;;;-0.57;100.00
49055;BME280;35405;52.344;14.530;2022-12-07T18:01:48;100025.19;;;-0.63;100.00
49055;BME280;35405;52.344;14.530;2022-12-07T18:04:13;100026.22;;;-0.64;100.00
49055;BME280;35405;52.344;14.530;2022-12-07T18:06:38;100026.22;;;-0.64;100.00
49055;BME280;35405;52.344;14.530;2022-12-07T18:09:04;100022.72;;;-0.64;100.00
49055;BME280;35405;52.344;14.530;2022-12-07T18:11:29;100027.00;;;-0.63;100.00
49055;BME280;35405;52.344;14.530;2022-12-07T18:13:55;100020.78;;;-0.69;100.00
49055;BME280;35405;52.344;14.530;2022-12-07T18:16:21;100020.19;;;-0.71;100.00
49055;BME280;35405;52.344;14.530;2022-12-07T18:18:47;100014.25;;;-0.73;100.00
49055;BME280;35405;52.344;14.530;2022-12-07T18:21:17;100012.75;;;-0.69;100.00
49055;BME280;35405;52.344;14.530;2022-12-07T18:23:43;100016.38;;;-0.75;100.00
49055;BME280;35405;52.344;14.530;2022-12-07T18:26:09;100011.13;;;-0.70;100.00
49055;BME280;35405;52.344;14.530;2022-12-07T18:28:34;100010.56;;;-0.72;100.00
49055;BME280;35405;52.344;14.530;2022-12-07T18:31:00;100003.84;;;-0.75;100.00
49055;BME280;35405;52.344;14.530;2022-12-07T18:33:25;100013.13;;;-0.77;100.00
49055;BME280;35405;52.344;14.530;2022-12-07T18:35:50;100011.13;;;-0.82;100.00
49055;BME280;35405;52.344;14.530;2022-12-07T18:38:15;100019.38;;;-0.83;100.00
49055;BME280;35405;52.344;14.530;2022-12-07T18:40:41;100019.94;;;-0.81;100.00
49055;BME280;35405;52.344;14.530;2022-12-07T18:43:07;100016.59;;;-0.77;100.00
49055;BME280;35405;52.344;14.530;2022-12-07T18:45:36;100004.97;;;-0.71;100.00
49055;BME280;35405;52.344;14.530;2022-12-07T18:48:01;100020.31;;;-0.66;100.00
49055;BME280;35405;52.344;14.530;2022-12-07T18:50:27;100024.00;;;-0.67;100.00
49055;BME280;35405;52.344;14.530;2022-12-07T18:52:52;100017.06;;;-0.68;100.00
49055;BME280;35405;52.344;14.530;2022-12-07T18:55:17;100014.97;;;-0.66;100.00
49055;BME280;35405;52.344;14.530;2022-12-07T18:57:42;100018.66;;;-0.67;100.00
49055;BME280;35405;52.344;14.530;2022-12-07T19:00:08;100020.78;;;-0.69;100.00
49055;BME280;35405;52.344;14.530;2022-12-07T19:02:33;100030.41;;;-0.68;100.00
49055;BME280;35405;52.344;14.530;2022-12-07T19:04:59;100025.75;;;-0.73;100.00
49055;BME280;35405;52.344;14.530;2022-12-07T19:07:26;100041.75;;;-0.73;100.00
49055;BME280;35405;52.344;14.530;2022-12-07T19:09:51;100032.41;;;-0.75;100.00
49055;BME280;35405;52.344;14.530;2022-12-07T19:12:16;100033.66;;;-0.78;100.00
49055;BME280;35405;52.344;14.530;2022-12-07T19:14:42;100034.81;;;-0.74;100.00
49055;BME280;35405;52.344;14.530;2022-12-07T19:17:08;100029.25;;;-0.72;100.00
49055;BME280;35405;52.344;14.530;2022-12-07T19:19:35;100040.03;;;-0.79;100.00
49055;BME280;35405;52.344;14.530;2022-12-07T19:22:01;100037.72;;;-0.75;100.00
49055;BME280;35405;52.344;14.530;2022-12-07T19:24:26;100038.06;;;-0.72;100.00
49055;BME280;35405;52.344;14.530;2022-12-07T19:26:52;100035.63;;;-0.73;100.00
49055;BME280;35405;52.344;14.530;2022-12-07T19:29:17;100039.81;;;-0.77;100.00
49055;BME280;35405;52.344;14.530;2022-12-07T19:31:43;100040.28;;;-0.80;100.00
49055;BME280;35405;52.344;14.530;2022-12-07T19:34:16;100050.50;;;-0.77;100.00
49055;BME280;35405;52.344;14.530;2022-12-07T19:36:44;100055.84;;;-0.77;100.00
49055;BME280;35405;52.344;14.530;2022-12-07T19:39:10;100052.09;;;-0.76;100.00
49055;BME280;35405;52.344;14.530;2022-12-07T19:41:35;100059.56;;;-0.78;100.00
49055;BME280;35405;52.344;14.530;2022-12-07T19:46:29;100059.19;;;-0.82;100.00
49055;BME280;35405;52.344;14.530;2022-12-07T19:48:54;100063.03;;;-0.89;100.00
49055;BME280;35405;52.344;14.530;2022-12-07T19:51:19;100058.50;;;-0.89;100.00
49055;BME280;35405;52.344;14.530;2022-12-07T19:53:45;100070.44;;;-0.92;100.00
49055;BME280;35405;52.344;14.530;2022-12-07T19:56:14;100062.69;;;-0.93;100.00
49055;BME280;35405;52.344;14.530;2022-12-07T19:58:39;100060.00;;;-0.93;100.00
49055;BME280;35405;52.344;14.530;2022-12-07T20:01:04;100054.28;;;-0.97;100.00
49055;BME280;35405;52.344;14.530;2022-12-07T20:03:30;100065.81;;;-0.96;100.00
49055;BME280;35405;52.344;14.530;2022-12-07T20:05:55;100059.06;;;-0.99;100.00
49055;BME280;35405;52.344;14.530;2022-12-07T20:08:21;100058.63;;;-0.96;100.00
49055;BME280;35405;52.344;14.530;2022-12-07T20:10:46;100065.69;;;-1.01;100.00
49055;BME280;35405;52.344;14.530;2022-12-07T20:13:12;100065.09;;;-1.03;100.00
49055;BME280;35405;52.344;14.530;2022-12-07T20:15:56;100070.66;;;-1.05;100.00
49055;BME280;35405;52.344;14.530;2022-12-07T20:18:21;100068.56;;;-1.03;100.00
49055;BME280;35405;52.344;14.530;2022-12-07T20:20:53;100072.50;;;-1.05;100.00
49055;BME280;35405;52.344;14.530;2022-12-07T20:23:20;100073.09;;;-1.03;100.00
49055;BME280;35405;52.344;14.530;2022-12-07T20:25:45;100066.34;;;-1.06;100.00
49055;BME280;35405;52.344;14.530;2022-12-07T20:28:10;100062.53;;;-1.10;100.00
49055;BME280;35405;52.344;14.530;2022-12-07T20:30:35;100070.19;;;-1.13;100.00
49055;BME280;35405;52.344;14.530;2022-12-07T20:33:01;100074.94;;;-1.16;100.00
49055;BME280;35405;52.344;14.530;2022-12-07T20:35:26;100074.72;;;-1.14;100.00
49055;BME280;35405;52.344;14.530;2022-12-07T20:37:51;100085.59;;;-1.16;100.00
49055;BME280;35405;52.344;14.530;2022-12-07T20:40:16;100082.34;;;-1.18;100.00
49055;BME280;35405;52.344;14.530;2022-12-07T20:42:41;100079.47;;;-1.16;100.00
49055;BME280;35405;52.344;14.530;2022-12-07T20:45:07;100087.69;;;-1.18;100.00
49055;BME280;35405;52.344;14.530;2022-12-07T20:47:33;100082.13;;;-1.16;100.00
49055;BME280;35405;52.344;14.530;2022-12-07T20:49:59;100090.13;;;-1.16;100.00
49055;BME280;35405;52.344;14.530;2022-12-07T20:52:24;100084.81;;;-1.16;100.00
49055;BME280;35405;52.344;14.530;2022-12-07T20:54:49;100077.72;;;-1.22;100.00
49055;BME280;35405;52.344;14.530;2022-12-07T20:57:15;100082.00;;;-1.21;100.00
49055;BME280;35405;52.344;14.530;2022-12-07T20:59:40;100085.25;;;-1.19;100.00
49055;BME280;35405;52.344;14.530;2022-12-07T21:02:05;100081.44;;;-1.23;100.00
49055;BME280;35405;52.344;14.530;2022-12-07T21:04:36;100079.69;;;-1.29;100.00
49055;BME280;35405;52.344;14.530;2022-12-07T21:07:02;100086.03;;;-1.30;100.00
49055;BME280;35405;52.344;14.530;2022-12-07T21:09:27;100086.53;;;-1.22;100.00
49055;BME280;35405;52.344;14.530;2022-12-07T21:11:53;100094.53;;;-1.22;100.00
49055;BME280;35405;52.344;14.530;2022-12-07T21:14:18;100089.50;;;-1.30;100.00
49055;BME280;35405;52.344;14.530;2022-12-07T21:16:43;100089.00;;;-1.39;100.00